sensor_id;sensor_type;location;lat;lon;timestamp;P1;durP1;ratioP1;P2;durP2;ratioP2
71963;SDS011;59834;52.124;5.422;2022-10-22T00:00:13;5.10;;;2.15;;
71963;SDS011;59834;52.124;5.422;2022-10-22T00:02:41;3.50;;;2.08;;
71963;SDS011;59834;52.124;5.422;2022-10-22T00:05:09;5.37;;;2.00;;
71963;SDS011;59834;52.124;5.422;2022-10-22T00:07:36;2.92;;;2.05;;
71963;SDS011;59834;52.124;5.422;2022-10-22T00:10:03;6.93;;;2.00;;
71963;SDS011;59834;52.124;5.422;2022-10-22T00:12:31;5.60;;;2.53;;
71963;SDS011;59834;52.124;5.422;2022-10-22T00:14:58;5.10;;;2.47;;
71963;SDS011;59834;52.124;5.422;2022-10-22T00:17:24;7.73;;;2.13;;
71963;SDS011;59834;52.124;5.422;2022-10-22T00:19:51;8.82;;;2.40;;
71963;SDS011;59834;52.124;5.422;2022-10-22T00:22:17;4.18;;;1.80;;
71963;SDS011;59834;52.124;5.422;2022-10-22T00:24:43;6.10;;;2.17;;
71963;SDS011;59834;52.124;5.422;2022-10-22T00:27:10;5.93;;;2.05;;
71963;SDS011;59834;52.124;5.422;2022-10-22T00:29:38;4.33;;;2.30;;
71963;SDS011;59834;52.124;5.422;2022-10-22T00:32:04;3.63;;;2.15;;
71963;SDS011;59834;52.124;5.422;2022-10-22T00:34:32;7.72;;;2.90;;
71963;SDS011;59834;52.124;5.422;2022-10-22T00:36:59;4.85;;;2.30;;
71963;SDS011;59834;52.124;5.422;2022-10-22T00:39:25;6.55;;;2.97;;
71963;SDS011;59834;52.124;5.422;2022-10-22T00:41:53;5.33;;;2.33;;
71963;SDS011;59834;52.124;5.422;2022-10-22T00:47:26;5.15;;;2.00;;
71963;SDS011;59834;52.124;5.422;2022-10-22T00:49:56;9.60;;;2.92;;
71963;SDS011;59834;52.124;5.422;2022-10-22T00:52:25;4.65;;;2.53;;
71963;SDS011;59834;52.124;5.422;2022-10-22T00:54:52;9.17;;;3.50;;
71963;SDS011;59834;52.124;5.422;2022-10-22T00:57:19;7.15;;;2.45;;
71963;SDS011;59834;52.124;5.422;2022-10-22T00:59:46;4.75;;;2.60;;
71963;SDS011;59834;52.124;5.422;2022-10-22T01:02:13;3.22;;;2.05;;
71963;SDS011;59834;52.124;5.422;2022-10-22T01:04:40;4.32;;;2.05;;
71963;SDS011;59834;52.124;5.422;2022-10-22T01:07:10;3.70;;;1.80;;
71963;SDS011;59834;52.124;5.422;2022-10-22T01:09:52;6.75;;;2.05;;
71963;SDS011;59834;52.124;5.422;2022-10-22T01:12:40;11.32;;;3.45;;
71963;SDS011;59834;52.124;5.422;2022-10-22T01:20:54;4.73;;;1.90;;
71963;SDS011;59834;52.124;5.422;2022-10-22T01:32:20;6.40;;;2.22;;
71963;SDS011;59834;52.124;5.422;2022-10-22T01:34:49;4.87;;;1.43;;
71963;SDS011;59834;52.124;5.422;2022-10-22T01:37:21;7.82;;;2.05;;
71963;SDS011;59834;52.124;5.422;2022-10-22T01:39:51;4.35;;;1.70;;
71963;SDS011;59834;52.124;5.422;2022-10-22T01:42:19;5.88;;;2.10;;
71963;SDS011;59834;52.124;5.422;2022-10-22T01:44:46;5.38;;;1.88;;
71963;SDS011;59834;52.124;5.422;2022-10-22T01:55:36;8.05;;;1.77;;
71963;SDS011;59834;52.124;5.422;2022-10-22T02:04:19;6.32;;;2.45;;
71963;SDS011;59834;52.124;5.422;2022-10-22T02:07:01;5.85;;;1.83;;
71963;SDS011;59834;52.124;5.422;2022-10-22T02:09:31;5.13;;;1.88;;
71963;SDS011;59834;52.124;5.422;2022-10-22T02:12:00;8.40;;;1.80;;
71963;SDS011;59834;52.124;5.422;2022-10-22T02:14:29;3.63;;;1.90;;
71963;SDS011;59834;52.124;5.422;2022-10-22T02:16:57;5.45;;;2.20;;
71963;SDS011;59834;52.124;5.422;2022-10-22T02:19:29;7.15;;;1.75;;
71963;SDS011;59834;52.124;5.422;2022-10-22T02:22:05;4.60;;;2.25;;
71963;SDS011;59834;52.124;5.422;2022-10-22T02:24:32;5.60;;;2.03;;
71963;SDS011;59834;52.124;5.422;2022-10-22T02:29:53;8.98;;;2.10;;
71963;SDS011;59834;52.124;5.422;2022-10-22T02:32:31;8.93;;;2.22;;
71963;SDS011;59834;52.124;5.422;2022-10-22T02:35:02;10.73;;;2.80;;
71963;SDS011;59834;52.124;5.422;2022-10-22T02:37:30;5.43;;;1.83;;
71963;SDS011;59834;52.124;5.422;2022-10-22T02:39:57;5.60;;;1.70;;
71963;SDS011;59834;52.124;5.422;2022-10-22T02:42:24;5.57;;;1.65;;
71963;SDS011;59834;52.124;5.422;2022-10-22T02:44:51;4.95;;;2.10;;
71963;SDS011;59834;52.124;5.422;2022-10-22T02:47:18;7.70;;;2.00;;
71963;SDS011;59834;52.124;5.422;2022-10-22T02:49:44;4.05;;;2.10;;
71963;SDS011;59834;52.124;5.422;2022-10-22T02:52:11;6.57;;;2.10;;
71963;SDS011;59834;52.124;5.422;2022-10-22T02:54:38;4.57;;;1.65;;
71963;SDS011;59834;52.124;5.422;2022-10-22T02:57:04;5.40;;;1.63;;
71963;SDS011;59834;52.124;5.422;2022-10-22T02:59:31;6.78;;;1.73;;
71963;SDS011;59834;52.124;5.422;2022-10-22T03:01:57;14.52;;;2.10;;
71963;SDS011;59834;52.124;5.422;2022-10-22T03:04:24;4.43;;;1.80;;
71963;SDS011;59834;52.124;5.422;2022-10-22T03:06:50;6.40;;;1.90;;
71963;SDS011;59834;52.124;5.422;2022-10-22T03:09:16;5.35;;;2.10;;
71963;SDS011;59834;52.124;5.422;2022-10-22T03:11:49;3.20;;;1.50;;
71963;SDS011;59834;52.124;5.422;2022-10-22T03:14:15;3.70;;;1.63;;
71963;SDS011;59834;52.124;5.422;2022-10-22T03:16:42;9.17;;;2.20;;
71963;SDS011;59834;52.124;5.422;2022-10-22T03:19:08;4.32;;;2.17;;
71963;SDS011;59834;52.124;5.422;2022-10-22T03:22:09;7.00;;;2.00;;
71963;SDS011;59834;52.124;5.422;2022-10-22T03:24:35;5.47;;;1.85;;
71963;SDS011;59834;52.124;5.422;2022-10-22T03:27:04;11.30;;;1.27;;
71963;SDS011;59834;52.124;5.422;2022-10-22T03:29:32;8.27;;;1.60;;
71963;SDS011;59834;52.124;5.422;2022-10-22T03:32:01;8.98;;;1.40;;
71963;SDS011;59834;52.124;5.422;2022-10-22T03:34:27;11.88;;;1.73;;
71963;SDS011;59834;52.124;5.422;2022-10-22T03:36:55;6.72;;;1.75;;
71963;SDS011;59834;52.124;5.422;2022-10-22T03:39:24;6.82;;;1.85;;
71963;SDS011;59834;52.124;5.422;2022-10-22T03:41:52;6.70;;;1.97;;
71963;SDS011;59834;52.124;5.422;2022-10-22T03:44:19;7.20;;;1.67;;
71963;SDS011;59834;52.124;5.422;2022-10-22T03:46:46;4.45;;;1.60;;
71963;SDS011;59834;52.124;5.422;2022-10-22T03:49:12;4.53;;;1.90;;
71963;SDS011;59834;52.124;5.422;2022-10-22T03:51:39;5.07;;;1.85;;
71963;SDS011;59834;52.124;5.422;2022-10-22T03:54:05;8.97;;;1.97;;
71963;SDS011;59834;52.124;5.422;2022-10-22T03:56:32;10.82;;;2.38;;
71963;SDS011;59834;52.124;5.422;2022-10-22T03:58:59;8.88;;;3.22;;
71963;SDS011;59834;52.124;5.422;2022-10-22T04:01:26;7.82;;;2.33;;
71963;SDS011;59834;52.124;5.422;2022-10-22T04:03:55;6.68;;;2.03;;
71963;SDS011;59834;52.124;5.422;2022-10-22T04:06:22;8.03;;;1.67;;
71963;SDS011;59834;52.124;5.422;2022-10-22T04:08:49;8.05;;;2.10;;
71963;SDS011;59834;52.124;5.422;2022-10-22T04:11:16;5.03;;;1.80;;
71963;SDS011;59834;52.124;5.422;2022-10-22T04:13:44;7.10;;;2.40;;
71963;SDS011;59834;52.124;5.422;2022-10-22T04:16:15;7.88;;;2.78;;
71963;SDS011;59834;52.124;5.422;2022-10-22T04:18:43;5.97;;;2.20;;
71963;SDS011;59834;52.124;5.422;2022-10-22T04:21:13;5.88;;;1.80;;
71963;SDS011;59834;52.124;5.422;2022-10-22T04:23:45;6.47;;;2.10;;
71963;SDS011;59834;52.124;5.422;2022-10-22T04:26:12;7.40;;;2.08;;
71963;SDS011;59834;52.124;5.422;2022-10-22T04:28:40;8.25;;;2.67;;
71963;SDS011;59834;52.124;5.422;2022-10-22T04:31:10;9.97;;;2.90;;
71963;SDS011;59834;52.124;5.422;2022-10-22T04:33:39;12.82;;;3.08;;
71963;SDS011;59834;52.124;5.422;2022-10-22T04:36:16;5.75;;;2.30;;
71963;SDS011;59834;52.124;5.422;2022-10-22T04:38:44;10.13;;;2.33;;
71963;SDS011;59834;52.124;5.422;2022-10-22T04:41:16;11.90;;;2.60;;
71963;SDS011;59834;52.124;5.422;2022-10-22T04:43:44;9.57;;;2.30;;
71963;SDS011;59834;52.124;5.422;2022-10-22T04:46:11;9.38;;;2.13;;
71963;SDS011;59834;52.124;5.422;2022-10-22T04:48:39;12.13;;;2.67;;
71963;SDS011;59834;52.124;5.422;2022-10-22T04:51:08;13.23;;;2.35;;
71963;SDS011;59834;52.124;5.422;2022-10-22T04:53:37;9.48;;;2.20;;
71963;SDS011;59834;52.124;5.422;2022-10-22T04:56:06;15.03;;;2.43;;
71963;SDS011;59834;52.124;5.422;2022-10-22T04:58:33;6.43;;;2.17;;
71963;SDS011;59834;52.124;5.422;2022-10-22T05:01:00;10.52;;;1.92;;
71963;SDS011;59834;52.124;5.422;2022-10-22T05:03:33;6.70;;;2.30;;
71963;SDS011;59834;52.124;5.422;2022-10-22T05:06:00;11.75;;;2.40;;
71963;SDS011;59834;52.124;5.422;2022-10-22T05:08:27;6.93;;;2.10;;
71963;SDS011;59834;52.124;5.422;2022-10-22T05:10:54;7.82;;;2.33;;
71963;SDS011;59834;52.124;5.422;2022-10-22T05:13:20;10.35;;;3.83;;
71963;SDS011;59834;52.124;5.422;2022-10-22T05:15:47;6.75;;;2.10;;
71963;SDS011;59834;52.124;5.422;2022-10-22T05:18:13;4.18;;;1.63;;
71963;SDS011;59834;52.124;5.422;2022-10-22T05:20:45;6.07;;;2.07;;
71963;SDS011;59834;52.124;5.422;2022-10-22T05:23:11;6.38;;;2.25;;
71963;SDS011;59834;52.124;5.422;2022-10-22T05:25:38;10.57;;;2.58;;
71963;SDS011;59834;52.124;5.422;2022-10-22T05:28:04;5.57;;;1.80;;
71963;SDS011;59834;52.124;5.422;2022-10-22T05:30:31;6.45;;;1.92;;
71963;SDS011;59834;52.124;5.422;2022-10-22T05:32:57;12.97;;;2.67;;
71963;SDS011;59834;52.124;5.422;2022-10-22T05:35:24;6.93;;;2.10;;
71963;SDS011;59834;52.124;5.422;2022-10-22T05:37:50;9.80;;;2.22;;
71963;SDS011;59834;52.124;5.422;2022-10-22T05:40:17;12.35;;;3.10;;
71963;SDS011;59834;52.124;5.422;2022-10-22T05:42:57;8.48;;;1.80;;
71963;SDS011;59834;52.124;5.422;2022-10-22T05:45:23;8.67;;;1.97;;
71963;SDS011;59834;52.124;5.422;2022-10-22T05:47:50;10.43;;;1.85;;
71963;SDS011;59834;52.124;5.422;2022-10-22T05:50:16;5.93;;;1.77;;
71963;SDS011;59834;52.124;5.422;2022-10-22T05:52:42;5.60;;;1.92;;
71963;SDS011;59834;52.124;5.422;2022-10-22T05:55:09;3.30;;;2.28;;
71963;SDS011;59834;52.124;5.422;2022-10-22T05:57:35;6.83;;;1.90;;
71963;SDS011;59834;52.124;5.422;2022-10-22T06:00:02;9.07;;;2.17;;
71963;SDS011;59834;52.124;5.422;2022-10-22T06:02:29;7.10;;;2.00;;
71963;SDS011;59834;52.124;5.422;2022-10-22T06:04:55;9.38;;;1.75;;
71963;SDS011;59834;52.124;5.422;2022-10-22T06:07:22;5.53;;;1.48;;
71963;SDS011;59834;52.124;5.422;2022-10-22T06:09:48;16.37;;;1.93;;
71963;SDS011;59834;52.124;5.422;2022-10-22T06:12:15;8.30;;;1.92;;
71963;SDS011;59834;52.124;5.422;2022-10-22T06:14:41;7.15;;;1.52;;
71963;SDS011;59834;52.124;5.422;2022-10-22T06:17:08;6.20;;;2.42;;
71963;SDS011;59834;52.124;5.422;2022-10-22T06:19:34;9.10;;;1.90;;
71963;SDS011;59834;52.124;5.422;2022-10-22T06:22:02;4.60;;;1.60;;
71963;SDS011;59834;52.124;5.422;2022-10-22T06:24:29;12.65;;;3.58;;
71963;SDS011;59834;52.124;5.422;2022-10-22T06:26:56;6.47;;;1.90;;
71963;SDS011;59834;52.124;5.422;2022-10-22T06:29:22;9.57;;;2.25;;
71963;SDS011;59834;52.124;5.422;2022-10-22T06:31:48;11.50;;;1.85;;
71963;SDS011;59834;52.124;5.422;2022-10-22T06:34:15;6.13;;;1.67;;
71963;SDS011;59834;52.124;5.422;2022-10-22T06:36:45;4.70;;;1.75;;
71963;SDS011;59834;52.124;5.422;2022-10-22T06:39:13;6.47;;;2.00;;
71963;SDS011;59834;52.124;5.422;2022-10-22T06:41:41;9.23;;;2.13;;
71963;SDS011;59834;52.124;5.422;2022-10-22T06:44:10;8.82;;;1.20;;
71963;SDS011;59834;52.124;5.422;2022-10-22T06:46:41;12.63;;;1.97;;
71963;SDS011;59834;52.124;5.422;2022-10-22T06:49:11;7.05;;;2.00;;
71963;SDS011;59834;52.124;5.422;2022-10-22T06:51:39;5.75;;;1.30;;
71963;SDS011;59834;52.124;5.422;2022-10-22T06:54:05;7.72;;;1.30;;
71963;SDS011;59834;52.124;5.422;2022-10-22T06:56:32;10.63;;;1.63;;
71963;SDS011;59834;52.124;5.422;2022-10-22T06:58:58;4.20;;;1.33;;
71963;SDS011;59834;52.124;5.422;2022-10-22T07:01:26;6.47;;;1.50;;
71963;SDS011;59834;52.124;5.422;2022-10-22T07:03:54;8.68;;;1.63;;
71963;SDS011;59834;52.124;5.422;2022-10-22T07:06:21;8.00;;;1.70;;
71963;SDS011;59834;52.124;5.422;2022-10-22T07:08:50;4.55;;;1.48;;
71963;SDS011;59834;52.124;5.422;2022-10-22T07:11:18;7.97;;;1.33;;
71963;SDS011;59834;52.124;5.422;2022-10-22T07:13:48;22.60;;;3.72;;
71963;SDS011;59834;52.124;5.422;2022-10-22T07:16:15;17.00;;;5.82;;
71963;SDS011;59834;52.124;5.422;2022-10-22T07:18:43;9.15;;;2.78;;
71963;SDS011;59834;52.124;5.422;2022-10-22T07:21:10;11.68;;;2.38;;
71963;SDS011;59834;52.124;5.422;2022-10-22T07:23:38;5.17;;;1.60;;
71963;SDS011;59834;52.124;5.422;2022-10-22T07:26:04;9.18;;;1.35;;
71963;SDS011;59834;52.124;5.422;2022-10-22T07:28:35;5.75;;;1.17;;
71963;SDS011;59834;52.124;5.422;2022-10-22T07:31:05;6.00;;;0.82;;
71963;SDS011;59834;52.124;5.422;2022-10-22T07:33:32;8.77;;;1.70;;
71963;SDS011;59834;52.124;5.422;2022-10-22T07:36:00;8.70;;;0.83;;
71963;SDS011;59834;52.124;5.422;2022-10-22T07:38:29;3.78;;;1.00;;
71963;SDS011;59834;52.124;5.422;2022-10-22T07:40:56;5.65;;;1.10;;
71963;SDS011;59834;52.124;5.422;2022-10-22T07:43:23;5.40;;;0.98;;
71963;SDS011;59834;52.124;5.422;2022-10-22T07:45:50;7.63;;;0.90;;
71963;SDS011;59834;52.124;5.422;2022-10-22T07:48:16;6.80;;;0.93;;
71963;SDS011;59834;52.124;5.422;2022-10-22T07:50:43;12.23;;;1.20;;
71963;SDS011;59834;52.124;5.422;2022-10-22T07:53:09;3.75;;;1.10;;
71963;SDS011;59834;52.124;5.422;2022-10-22T07:55:36;4.57;;;0.85;;
71963;SDS011;59834;52.124;5.422;2022-10-22T07:58:03;2.92;;;0.73;;
71963;SDS011;59834;52.124;5.422;2022-10-22T08:00:29;3.93;;;0.60;;
71963;SDS011;59834;52.124;5.422;2022-10-22T08:02:55;4.05;;;0.80;;
71963;SDS011;59834;52.124;5.422;2022-10-22T08:05:22;5.60;;;1.38;;
71963;SDS011;59834;52.124;5.422;2022-10-22T08:07:48;8.05;;;0.90;;
71963;SDS011;59834;52.124;5.422;2022-10-22T08:10:15;5.75;;;0.90;;
71963;SDS011;59834;52.124;5.422;2022-10-22T08:12:41;4.50;;;0.80;;
71963;SDS011;59834;52.124;5.422;2022-10-22T08:15:08;10.90;;;2.30;;
71963;SDS011;59834;52.124;5.422;2022-10-22T08:17:35;4.97;;;0.90;;
71963;SDS011;59834;52.124;5.422;2022-10-22T08:20:02;7.50;;;1.40;;
71963;SDS011;59834;52.124;5.422;2022-10-22T08:22:29;5.60;;;0.90;;
71963;SDS011;59834;52.124;5.422;2022-10-22T08:24:55;7.07;;;0.73;;
71963;SDS011;59834;52.124;5.422;2022-10-22T08:27:22;6.15;;;0.98;;
71963;SDS011;59834;52.124;5.422;2022-10-22T08:29:48;9.88;;;2.28;;
71963;SDS011;59834;52.124;5.422;2022-10-22T08:32:15;9.68;;;0.80;;
71963;SDS011;59834;52.124;5.422;2022-10-22T08:34:42;8.77;;;1.52;;
71963;SDS011;59834;52.124;5.422;2022-10-22T08:37:08;8.60;;;1.13;;
71963;SDS011;59834;52.124;5.422;2022-10-22T08:39:39;5.18;;;0.63;;
71963;SDS011;59834;52.124;5.422;2022-10-22T08:42:29;8.23;;;0.80;;
71963;SDS011;59834;52.124;5.422;2022-10-22T08:45:45;6.28;;;0.80;;
71963;SDS011;59834;52.124;5.422;2022-10-22T08:48:05;11.55;;;0.65;;
71963;SDS011;59834;52.124;5.422;2022-10-22T08:50:45;7.23;;;1.03;;
71963;SDS011;59834;52.124;5.422;2022-10-22T08:53:17;5.47;;;0.80;;
71963;SDS011;59834;52.124;5.422;2022-10-22T08:55:47;6.10;;;0.73;;
71963;SDS011;59834;52.124;5.422;2022-10-22T09:01:04;9.95;;;0.70;;
71963;SDS011;59834;52.124;5.422;2022-10-22T09:08:44;9.27;;;1.02;;
71963;SDS011;59834;52.124;5.422;2022-10-22T09:13:41;4.00;;;0.57;;
71963;SDS011;59834;52.124;5.422;2022-10-22T09:16:17;2.60;;;0.53;;
71963;SDS011;59834;52.124;5.422;2022-10-22T09:21:25;14.43;;;0.88;;
71963;SDS011;59834;52.124;5.422;2022-10-22T09:26:25;10.00;;;1.08;;
71963;SDS011;59834;52.124;5.422;2022-10-22T09:28:51;8.20;;;0.70;;
71963;SDS011;59834;52.124;5.422;2022-10-22T09:31:18;9.60;;;0.68;;
71963;SDS011;59834;52.124;5.422;2022-10-22T09:33:45;5.07;;;0.55;;
71963;SDS011;59834;52.124;5.422;2022-10-22T09:36:18;5.03;;;0.55;;
71963;SDS011;59834;52.124;5.422;2022-10-22T09:38:51;8.27;;;0.80;;
71963;SDS011;59834;52.124;5.422;2022-10-22T09:41:18;5.07;;;0.70;;
71963;SDS011;59834;52.124;5.422;2022-10-22T09:43:48;7.20;;;0.95;;
71963;SDS011;59834;52.124;5.422;2022-10-22T09:46:16;10.75;;;0.85;;
71963;SDS011;59834;52.124;5.422;2022-10-22T09:49:05;8.13;;;0.88;;
71963;SDS011;59834;52.124;5.422;2022-10-22T09:54:22;9.77;;;1.20;;
71963;SDS011;59834;52.124;5.422;2022-10-22T09:56:55;6.95;;;0.57;;
71963;SDS011;59834;52.124;5.422;2022-10-22T09:59:25;4.50;;;0.55;;
71963;SDS011;59834;52.124;5.422;2022-10-22T10:02:02;7.53;;;0.57;;
71963;SDS011;59834;52.124;5.422;2022-10-22T10:04:49;5.75;;;0.93;;
71963;SDS011;59834;52.124;5.422;2022-10-22T10:07:18;9.33;;;0.90;;
71963;SDS011;59834;52.124;5.422;2022-10-22T10:09:52;5.82;;;0.82;;
71963;SDS011;59834;52.124;5.422;2022-10-22T10:17:56;7.53;;;0.40;;
71963;SDS011;59834;52.124;5.422;2022-10-22T10:20:43;5.83;;;0.53;;
71963;SDS011;59834;52.124;5.422;2022-10-22T10:23:23;6.53;;;0.65;;
71963;SDS011;59834;52.124;5.422;2022-10-22T10:26:16;6.75;;;0.80;;
71963;SDS011;59834;52.124;5.422;2022-10-22T10:28:59;6.55;;;0.63;;
71963;SDS011;59834;52.124;5.422;2022-10-22T10:34:56;5.97;;;0.70;;
71963;SDS011;59834;52.124;5.422;2022-10-22T10:37:35;6.00;;;1.02;;
71963;SDS011;59834;52.124;5.422;2022-10-22T10:40:20;6.38;;;0.50;;
71963;SDS011;59834;52.124;5.422;2022-10-22T10:43:02;2.53;;;0.50;;
71963;SDS011;59834;52.124;5.422;2022-10-22T10:48:22;5.03;;;0.67;;
71963;SDS011;59834;52.124;5.422;2022-10-22T10:51:02;8.27;;;0.93;;
71963;SDS011;59834;52.124;5.422;2022-10-22T10:56:47;3.88;;;0.80;;
71963;SDS011;59834;52.124;5.422;2022-10-22T11:07:12;4.70;;;0.82;;
71963;SDS011;59834;52.124;5.422;2022-10-22T11:10:01;6.85;;;0.25;;
71963;SDS011;59834;52.124;5.422;2022-10-22T11:12:46;6.70;;;0.47;;
71963;SDS011;59834;52.124;5.422;2022-10-22T11:15:32;3.33;;;1.03;;
71963;SDS011;59834;52.124;5.422;2022-10-22T11:20:56;7.75;;;0.45;;
71963;SDS011;59834;52.124;5.422;2022-10-22T11:23:33;3.28;;;0.40;;
71963;SDS011;59834;52.124;5.422;2022-10-22T11:26:07;6.00;;;1.15;;
71963;SDS011;59834;52.124;5.422;2022-10-22T11:28:41;10.37;;;1.17;;
71963;SDS011;59834;52.124;5.422;2022-10-22T11:31:13;4.90;;;0.45;;
71963;SDS011;59834;52.124;5.422;2022-10-22T11:33:52;3.83;;;0.50;;
71963;SDS011;59834;52.124;5.422;2022-10-22T11:36:35;4.13;;;0.40;;
71963;SDS011;59834;52.124;5.422;2022-10-22T11:39:03;7.43;;;0.65;;
71963;SDS011;59834;52.124;5.422;2022-10-22T11:41:31;6.63;;;1.10;;
71963;SDS011;59834;52.124;5.422;2022-10-22T11:44:09;7.97;;;1.95;;
71963;SDS011;59834;52.124;5.422;2022-10-22T11:46:52;5.53;;;0.52;;
71963;SDS011;59834;52.124;5.422;2022-10-22T11:49:22;4.03;;;0.30;;
71963;SDS011;59834;52.124;5.422;2022-10-22T11:55:26;6.73;;;0.97;;
71963;SDS011;59834;52.124;5.422;2022-10-22T11:58:30;11.55;;;1.15;;
71963;SDS011;59834;52.124;5.422;2022-10-22T12:14:33;6.80;;;0.55;;
71963;SDS011;59834;52.124;5.422;2022-10-22T12:17:16;7.20;;;0.80;;
71963;SDS011;59834;52.124;5.422;2022-10-22T12:19:45;7.32;;;1.40;;
71963;SDS011;59834;52.124;5.422;2022-10-22T12:22:19;4.03;;;0.60;;
71963;SDS011;59834;52.124;5.422;2022-10-22T12:24:47;8.48;;;1.10;;
71963;SDS011;59834;52.124;5.422;2022-10-22T12:27:21;12.60;;;0.90;;
71963;SDS011;59834;52.124;5.422;2022-10-22T12:29:55;8.20;;;0.50;;
71963;SDS011;59834;52.124;5.422;2022-10-22T12:32:31;6.65;;;1.35;;
71963;SDS011;59834;52.124;5.422;2022-10-22T12:35:10;5.47;;;0.37;;
71963;SDS011;59834;52.124;5.422;2022-10-22T12:37:42;6.85;;;0.60;;
71963;SDS011;59834;52.124;5.422;2022-10-22T12:40:16;9.93;;;0.63;;
71963;SDS011;59834;52.124;5.422;2022-10-22T12:42:57;7.10;;;0.70;;
71963;SDS011;59834;52.124;5.422;2022-10-22T12:45:30;4.10;;;0.50;;
71963;SDS011;59834;52.124;5.422;2022-10-22T12:48:03;13.27;;;1.57;;
71963;SDS011;59834;52.124;5.422;2022-10-22T12:50:34;15.23;;;1.25;;
71963;SDS011;59834;52.124;5.422;2022-10-22T12:53:28;5.22;;;0.57;;
71963;SDS011;59834;52.124;5.422;2022-10-22T12:55:59;14.40;;;0.85;;
71963;SDS011;59834;52.124;5.422;2022-10-22T12:58:28;7.18;;;0.47;;
71963;SDS011;59834;52.124;5.422;2022-10-22T13:01:08;11.33;;;2.07;;
71963;SDS011;59834;52.124;5.422;2022-10-22T13:03:44;5.68;;;0.60;;
71963;SDS011;59834;52.124;5.422;2022-10-22T13:08:53;8.25;;;0.50;;
71963;SDS011;59834;52.124;5.422;2022-10-22T13:11:21;9.07;;;0.73;;
71963;SDS011;59834;52.124;5.422;2022-10-22T13:13:47;11.23;;;0.90;;
71963;SDS011;59834;52.124;5.422;2022-10-22T13:16:23;8.40;;;0.68;;
71963;SDS011;59834;52.124;5.422;2022-10-22T13:18:51;6.10;;;0.70;;
71963;SDS011;59834;52.124;5.422;2022-10-22T13:21:26;9.43;;;1.17;;
71963;SDS011;59834;52.124;5.422;2022-10-22T13:24:18;11.43;;;0.98;;
71963;SDS011;59834;52.124;5.422;2022-10-22T13:26:47;10.87;;;1.00;;
71963;SDS011;59834;52.124;5.422;2022-10-22T13:29:16;8.07;;;0.90;;
71963;SDS011;59834;52.124;5.422;2022-10-22T13:31:47;8.57;;;0.85;;
71963;SDS011;59834;52.124;5.422;2022-10-22T13:34:18;5.90;;;0.75;;
71963;SDS011;59834;52.124;5.422;2022-10-22T13:36:47;9.40;;;1.02;;
71963;SDS011;59834;52.124;5.422;2022-10-22T13:39:15;8.17;;;1.00;;
71963;SDS011;59834;52.124;5.422;2022-10-22T13:41:44;10.63;;;1.15;;
71963;SDS011;59834;52.124;5.422;2022-10-22T13:44:11;8.63;;;0.82;;
71963;SDS011;59834;52.124;5.422;2022-10-22T13:46:37;13.30;;;1.00;;
71963;SDS011;59834;52.124;5.422;2022-10-22T13:49:17;9.52;;;0.82;;
71963;SDS011;59834;52.124;5.422;2022-10-22T13:51:45;8.53;;;1.00;;
71963;SDS011;59834;52.124;5.422;2022-10-22T13:54:13;7.95;;;0.75;;
71963;SDS011;59834;52.124;5.422;2022-10-22T13:56:42;8.95;;;1.20;;
71963;SDS011;59834;52.124;5.422;2022-10-22T13:59:09;8.80;;;0.95;;
71963;SDS011;59834;52.124;5.422;2022-10-22T14:01:35;9.75;;;1.13;;
71963;SDS011;59834;52.124;5.422;2022-10-22T14:04:04;12.00;;;0.93;;
71963;SDS011;59834;52.124;5.422;2022-10-22T14:06:32;9.85;;;1.85;;
71963;SDS011;59834;52.124;5.422;2022-10-22T14:09:00;12.55;;;1.50;;
71963;SDS011;59834;52.124;5.422;2022-10-22T14:11:29;9.80;;;0.70;;
71963;SDS011;59834;52.124;5.422;2022-10-22T14:13:57;9.00;;;0.98;;
71963;SDS011;59834;52.124;5.422;2022-10-22T14:16:25;6.60;;;1.43;;
71963;SDS011;59834;52.124;5.422;2022-10-22T14:18:53;7.00;;;0.70;;
71963;SDS011;59834;52.124;5.422;2022-10-22T14:21:20;8.60;;;1.45;;
71963;SDS011;59834;52.124;5.422;2022-10-22T14:23:47;6.40;;;0.93;;
71963;SDS011;59834;52.124;5.422;2022-10-22T14:26:23;12.32;;;1.35;;
71963;SDS011;59834;52.124;5.422;2022-10-22T14:28:53;12.40;;;1.83;;
71963;SDS011;59834;52.124;5.422;2022-10-22T14:31:40;8.63;;;0.88;;
71963;SDS011;59834;52.124;5.422;2022-10-22T14:34:10;9.48;;;1.35;;
71963;SDS011;59834;52.124;5.422;2022-10-22T14:36:38;6.28;;;1.10;;
71963;SDS011;59834;52.124;5.422;2022-10-22T14:39:05;13.35;;;1.35;;
71963;SDS011;59834;52.124;5.422;2022-10-22T14:41:31;7.30;;;1.13;;
71963;SDS011;59834;52.124;5.422;2022-10-22T14:43:58;9.75;;;0.93;;
71963;SDS011;59834;52.124;5.422;2022-10-22T14:46:25;14.45;;;2.45;;
71963;SDS011;59834;52.124;5.422;2022-10-22T14:48:51;7.45;;;1.02;;
71963;SDS011;59834;52.124;5.422;2022-10-22T14:51:21;7.20;;;0.73;;
71963;SDS011;59834;52.124;5.422;2022-10-22T14:53:48;11.57;;;2.00;;
71963;SDS011;59834;52.124;5.422;2022-10-22T14:56:16;5.20;;;0.40;;
71963;SDS011;59834;52.124;5.422;2022-10-22T14:58:46;15.30;;;1.02;;
71963;SDS011;59834;52.124;5.422;2022-10-22T15:01:12;6.50;;;0.55;;
71963;SDS011;59834;52.124;5.422;2022-10-22T15:03:39;6.93;;;0.70;;
71963;SDS011;59834;52.124;5.422;2022-10-22T15:06:05;10.83;;;1.93;;
71963;SDS011;59834;52.124;5.422;2022-10-22T15:08:33;9.02;;;0.90;;
71963;SDS011;59834;52.124;5.422;2022-10-22T15:11:03;6.90;;;0.90;;
71963;SDS011;59834;52.124;5.422;2022-10-22T15:13:32;9.40;;;1.70;;
71963;SDS011;59834;52.124;5.422;2022-10-22T15:15:59;9.90;;;0.90;;
71963;SDS011;59834;52.124;5.422;2022-10-22T15:18:26;12.00;;;0.97;;
71963;SDS011;59834;52.124;5.422;2022-10-22T15:21:04;6.68;;;0.63;;
71963;SDS011;59834;52.124;5.422;2022-10-22T15:23:32;7.95;;;1.02;;
71963;SDS011;59834;52.124;5.422;2022-10-22T15:25:59;10.85;;;1.20;;
71963;SDS011;59834;52.124;5.422;2022-10-22T15:28:25;7.80;;;1.13;;
71963;SDS011;59834;52.124;5.422;2022-10-22T15:30:52;9.33;;;0.77;;
71963;SDS011;59834;52.124;5.422;2022-10-22T15:33:23;11.77;;;1.35;;
71963;SDS011;59834;52.124;5.422;2022-10-22T15:35:50;6.95;;;0.95;;
71963;SDS011;59834;52.124;5.422;2022-10-22T15:38:17;3.33;;;0.43;;
71963;SDS011;59834;52.124;5.422;2022-10-22T15:40:44;12.05;;;1.13;;
71963;SDS011;59834;52.124;5.422;2022-10-22T15:43:10;4.33;;;0.80;;
71963;SDS011;59834;52.124;5.422;2022-10-22T15:45:38;12.63;;;1.30;;
71963;SDS011;59834;52.124;5.422;2022-10-22T15:48:04;9.63;;;0.73;;
71963;SDS011;59834;52.124;5.422;2022-10-22T15:50:31;4.97;;;0.60;;
71963;SDS011;59834;52.124;5.422;2022-10-22T15:53:03;12.95;;;1.48;;
71963;SDS011;59834;52.124;5.422;2022-10-22T15:55:30;11.10;;;0.70;;
71963;SDS011;59834;52.124;5.422;2022-10-22T15:57:56;8.18;;;0.70;;
71963;SDS011;59834;52.124;5.422;2022-10-22T16:00:28;10.70;;;0.70;;
71963;SDS011;59834;52.124;5.422;2022-10-22T16:02:55;7.63;;;0.65;;
71963;SDS011;59834;52.124;5.422;2022-10-22T16:05:21;6.15;;;1.05;;
71963;SDS011;59834;52.124;5.422;2022-10-22T16:07:47;11.70;;;0.93;;
71963;SDS011;59834;52.124;5.422;2022-10-22T16:10:14;8.73;;;0.80;;
71963;SDS011;59834;52.124;5.422;2022-10-22T16:12:41;9.82;;;2.88;;
71963;SDS011;59834;52.124;5.422;2022-10-22T16:15:08;8.98;;;1.55;;
71963;SDS011;59834;52.124;5.422;2022-10-22T16:17:35;14.25;;;2.13;;
71963;SDS011;59834;52.124;5.422;2022-10-22T16:20:02;10.20;;;1.57;;
71963;SDS011;59834;52.124;5.422;2022-10-22T16:22:28;13.70;;;2.50;;
71963;SDS011;59834;52.124;5.422;2022-10-22T16:24:55;11.27;;;1.73;;
71963;SDS011;59834;52.124;5.422;2022-10-22T16:27:21;10.60;;;2.78;;
71963;SDS011;59834;52.124;5.422;2022-10-22T16:29:48;10.38;;;1.98;;
71963;SDS011;59834;52.124;5.422;2022-10-22T16:32:14;8.10;;;2.20;;
71963;SDS011;59834;52.124;5.422;2022-10-22T16:34:41;9.32;;;1.10;;
71963;SDS011;59834;52.124;5.422;2022-10-22T16:37:08;6.72;;;1.27;;
71963;SDS011;59834;52.124;5.422;2022-10-22T16:39:37;5.85;;;1.35;;